sensor_id;sensor_type;location;lat;lon;timestamp;pressure;altitude;pressure_sealevel;temperature;humidity
7760;BME280;3924;48.830;9.262;2022-12-29T00:01:33;98193.19;;;7.57;74.29
7760;BME280;3924;48.830;9.262;2022-12-29T00:04:06;98189.41;;;7.58;74.82
7760;BME280;3924;48.830;9.262;2022-12-29T00:06:42;98193.19;;;7.57;74.58
7760;BME280;3924;48.830;9.262;2022-12-29T00:09:13;98185.41;;;7.56;74.17
7760;BME280;3924;48.830;9.262;2022-12-29T00:11:42;98182.16;;;7.54;75.16
7760;BME280;3924;48.830;9.262;2022-12-29T00:14:10;98185.41;;;7.56;74.52
7760;BME280;3924;48.830;9.262;2022-12-29T00:16:56;98177.00;;;7.57;74.63
7760;BME280;3924;48.830;9.262;2022-12-29T00:19:23;98175.63;;;7.60;74.28
7760;BME280;3924;48.830;9.262;2022-12-29T00:22:13;98174.53;;;7.61;74.54
7760;BME280;3924;48.830;9.262;2022-12-29T00:24:59;98175.34;;;7.61;74.70
7760;BME280;3924;48.830;9.262;2022-12-29T00:27:28;98170.50;;;7.63;74.64
7760;BME280;3924;48.830;9.262;2022-12-29T00:30:17;98164.28;;;7.63;74.36
7760;BME280;3924;48.830;9.262;2022-12-29T00:33:17;98164.81;;;7.65;74.41
7760;BME280;3924;48.830;9.262;2022-12-29T00:36:19;98167.97;;;7.72;74.50
7760;BME280;3924;48.830;9.262;2022-12-29T00:38:52;98163.66;;;7.76;73.78
7760;BME280;3924;48.830;9.262;2022-12-29T00:41:42;98158.47;;;7.80;74.80
7760;BME280;3924;48.830;9.262;2022-12-29T00:44:28;98161.97;;;7.80;74.67
7760;BME280;3924;48.830;9.262;2022-12-29T00:46:55;98158.19;;;7.81;74.78
7760;BME280;3924;48.830;9.262;2022-12-29T00:49:25;98153.06;;;7.80;74.56
7760;BME280;3924;48.830;9.262;2022-12-29T00:52:09;98159.81;;;7.82;74.09
7760;BME280;3924;48.830;9.262;2022-12-29T00:54:58;98147.13;;;7.83;74.15
7760;BME280;3924;48.830;9.262;2022-12-29T00:57:25;98149.75;;;7.88;73.96
7760;BME280;3924;48.830;9.262;2022-12-29T00:59:51;98154.88;;;7.89;74.07
7760;BME280;3924;48.830;9.262;2022-12-29T01:02:18;98156.41;;;7.95;74.32
7760;BME280;3924;48.830;9.262;2022-12-29T01:04:44;98143.47;;;7.98;73.81
7760;BME280;3924;48.830;9.262;2022-12-29T01:07:11;98156.97;;;7.98;74.19
7760;BME280;3924;48.830;9.262;2022-12-29T01:09:37;98150.97;;;8.01;74.39
7760;BME280;3924;48.830;9.262;2022-12-29T01:12:23;98163.91;;;8.04;74.17
7760;BME280;3924;48.830;9.262;2022-12-29T01:15:08;98162.81;;;8.05;74.25
7760;BME280;3924;48.830;9.262;2022-12-29T01:17:35;98156.56;;;8.09;73.72
7760;BME280;3924;48.830;9.262;2022-12-29T01:20:02;98156.28;;;8.11;74.13
7760;BME280;3924;48.830;9.262;2022-12-29T01:22:29;98163.81;;;8.14;73.95
7760;BME280;3924;48.830;9.262;2022-12-29T01:24:55;98163.50;;;8.15;73.89
7760;BME280;3924;48.830;9.262;2022-12-29T01:27:22;98170.00;;;8.14;73.85
7760;BME280;3924;48.830;9.262;2022-12-29T01:29:48;98171.59;;;8.15;73.45
7760;BME280;3924;48.830;9.262;2022-12-29T01:32:15;98170.25;;;8.18;73.23
7760;BME280;3924;48.830;9.262;2022-12-29T01:34:43;98171.84;;;8.19;73.81
7760;BME280;3924;48.830;9.262;2022-12-29T01:37:10;98158.91;;;8.16;73.54
7760;BME280;3924;48.830;9.262;2022-12-29T01:39:37;98164.31;;;8.16;73.78
7760;BME280;3924;48.830;9.262;2022-12-29T01:42:03;98169.72;;;8.16;73.73
7760;BME280;3924;48.830;9.262;2022-12-29T01:50:11;98157.09;;;8.11;74.22
7760;BME280;3924;48.830;9.262;2022-12-29T01:52:43;98176.19;;;8.15;73.65
7760;BME280;3924;48.830;9.262;2022-12-29T01:55:11;98161.59;;;8.16;73.49
7760;BME280;3924;48.830;9.262;2022-12-29T01:57:41;98162.66;;;8.20;73.02
7760;BME280;3924;48.830;9.262;2022-12-29T02:00:12;98162.06;;;8.23;73.40
7760;BME280;3924;48.830;9.262;2022-12-29T02:02:42;98157.72;;;8.27;73.67
7760;BME280;3924;48.830;9.262;2022-12-29T02:05:20;98155.53;;;8.29;73.55
7760;BME280;3924;48.830;9.262;2022-12-29T02:07:50;98153.38;;;8.31;73.75
7760;BME280;3924;48.830;9.262;2022-12-29T02:10:20;98153.88;;;8.33;73.89
7760;BME280;3924;48.830;9.262;2022-12-29T02:12:47;98144.41;;;8.36;73.66
7760;BME280;3924;48.830;9.262;2022-12-29T02:15:14;98139.00;;;8.36;73.41
7760;BME280;3924;48.830;9.262;2022-12-29T02:17:59;98136.56;;;8.34;73.35
7760;BME280;3924;48.830;9.262;2022-12-29T02:20:58;98143.59;;;8.35;73.15
7760;BME280;3924;48.830;9.262;2022-12-29T02:29:46;98138.56;;;8.53;72.65
7760;BME280;3924;48.830;9.262;2022-12-29T02:35:23;98129.00;;;8.60;72.93
7760;BME280;3924;48.830;9.262;2022-12-29T02:38:22;98124.84;;;8.68;73.09
7760;BME280;3924;48.830;9.262;2022-12-29T02:40:55;98128.50;;;8.77;72.61
7760;BME280;3924;48.830;9.262;2022-12-29T02:46:19;98123.97;;;8.91;72.57
7760;BME280;3924;48.830;9.262;2022-12-29T02:51:50;98116.47;;;8.88;72.77
7760;BME280;3924;48.830;9.262;2022-12-29T02:54:18;98115.94;;;8.86;72.78
7760;BME280;3924;48.830;9.262;2022-12-29T02:57:15;98119.72;;;8.85;72.35
7760;BME280;3924;48.830;9.262;2022-12-29T02:59:44;98120.81;;;8.84;72.70
7760;BME280;3924;48.830;9.262;2022-12-29T03:18:48;98112.28;;;8.77;72.81
7760;BME280;3924;48.830;9.262;2022-12-29T03:21:46;98113.88;;;8.78;72.17
7760;BME280;3924;48.830;9.262;2022-12-29T03:24:33;98107.41;;;8.79;72.30
7760;BME280;3924;48.830;9.262;2022-12-29T03:27:02;98107.41;;;8.79;71.93
7760;BME280;3924;48.830;9.262;2022-12-29T03:29:33;98100.31;;;8.83;72.13
7760;BME280;3924;48.830;9.262;2022-12-29T03:32:03;98096.78;;;8.83;72.55
7760;BME280;3924;48.830;9.262;2022-12-29T03:34:31;98089.50;;;8.83;72.00
7760;BME280;3924;48.830;9.262;2022-12-29T03:37:12;98090.28;;;8.84;72.07
7760;BME280;3924;48.830;9.262;2022-12-29T03:39:39;98090.59;;;8.82;72.41
7760;BME280;3924;48.830;9.262;2022-12-29T03:42:14;98095.69;;;8.84;71.80
7760;BME280;3924;48.830;9.262;2022-12-29T03:44:43;98091.91;;;8.85;72.08
7760;BME280;3924;48.830;9.262;2022-12-29T03:47:11;98079.72;;;8.87;72.69
7760;BME280;3924;48.830;9.262;2022-12-29T03:49:39;98071.97;;;8.99;72.50
7760;BME280;3924;48.830;9.262;2022-12-29T03:52:05;98082.09;;;9.08;72.28
7760;BME280;3924;48.830;9.262;2022-12-29T03:54:32;98064.72;;;9.14;71.63
7760;BME280;3924;48.830;9.262;2022-12-29T03:56:59;98066.25;;;9.20;71.92
7760;BME280;3924;48.830;9.262;2022-12-29T03:59:25;98064.91;;;9.17;71.34
7760;BME280;3924;48.830;9.262;2022-12-29T04:01:52;98079.16;;;9.23;71.17
7760;BME280;3924;48.830;9.262;2022-12-29T04:04:18;98076.88;;;9.30;71.60
7760;BME280;3924;48.830;9.262;2022-12-29T04:06:45;98072.50;;;9.34;71.83
7760;BME280;3924;48.830;9.262;2022-12-29T04:09:11;98081.69;;;9.33;70.95
7760;BME280;3924;48.830;9.262;2022-12-29T04:11:38;98076.88;;;9.30;71.36
7760;BME280;3924;48.830;9.262;2022-12-29T04:14:04;98073.66;;;9.28;71.52
7760;BME280;3924;48.830;9.262;2022-12-29T04:16:30;98070.16;;;9.27;71.09
7760;BME280;3924;48.830;9.262;2022-12-29T04:18:57;98082.34;;;9.25;71.47
7760;BME280;3924;48.830;9.262;2022-12-29T04:21:23;98086.88;;;9.29;71.96
7760;BME280;3924;48.830;9.262;2022-12-29T04:23:50;98095.53;;;9.45;71.25
7760;BME280;3924;48.830;9.262;2022-12-29T04:26:16;98097.56;;;9.53;70.74
7760;BME280;3924;48.830;9.262;2022-12-29T04:28:42;98096.38;;;9.59;70.84
7760;BME280;3924;48.830;9.262;2022-12-29T04:31:09;98097.19;;;9.60;71.30
7760;BME280;3924;48.830;9.262;2022-12-29T04:33:36;98092.00;;;9.64;70.83
7760;BME280;3924;48.830;9.262;2022-12-29T04:36:02;98090.59;;;9.66;71.46
7760;BME280;3924;48.830;9.262;2022-12-29T04:38:28;98096.81;;;9.67;71.13
7760;BME280;3924;48.830;9.262;2022-12-29T04:40:55;98093.50;;;9.70;70.70
7760;BME280;3924;48.830;9.262;2022-12-29T04:43:24;98080.28;;;9.68;71.25
7760;BME280;3924;48.830;9.262;2022-12-29T04:45:51;98081.66;;;9.66;70.32
7760;BME280;3924;48.830;9.262;2022-12-29T04:48:17;98087.16;;;9.60;70.47
7760;BME280;3924;48.830;9.262;2022-12-29T04:50:47;98094.09;;;9.67;70.49
7760;BME280;3924;48.830;9.262;2022-12-29T04:53:14;98094.63;;;9.69;71.28
7760;BME280;3924;48.830;9.262;2022-12-29T04:55:41;98093.50;;;9.70;70.82
7760;BME280;3924;48.830;9.262;2022-12-29T04:58:07;98092.72;;;9.69;70.84
7760;BME280;3924;48.830;9.262;2022-12-29T05:00:34;98103.72;;;9.73;70.84
7760;BME280;3924;48.830;9.262;2022-12-29T05:03:00;98097.13;;;9.79;71.04
7760;BME280;3924;48.830;9.262;2022-12-29T05:05:27;98098.47;;;9.81;70.52
7760;BME280;3924;48.830;9.262;2022-12-29T05:07:54;98093.13;;;9.76;71.18
7760;BME280;3924;48.830;9.262;2022-12-29T05:10:20;98082.00;;;9.78;71.45
7760;BME280;3924;48.830;9.262;2022-12-29T05:12:46;98074.38;;;9.80;70.46
7760;BME280;3924;48.830;9.262;2022-12-29T05:15:13;98080.41;;;9.77;71.35
7760;BME280;3924;48.830;9.262;2022-12-29T05:17:39;98072.19;;;9.82;71.05
7760;BME280;3924;48.830;9.262;2022-12-29T05:20:06;98077.00;;;9.85;70.52
7760;BME280;3924;48.830;9.262;2022-12-29T05:22:33;98074.19;;;9.90;70.89
7760;BME280;3924;48.830;9.262;2022-12-29T05:24:59;98075.50;;;9.93;70.49
7760;BME280;3924;48.830;9.262;2022-12-29T05:27:26;98072.78;;;9.93;70.81
7760;BME280;3924;48.830;9.262;2022-12-29T05:29:53;98065.97;;;9.95;71.60
7760;BME280;3924;48.830;9.262;2022-12-29T05:32:19;98058.94;;;9.94;70.59
7760;BME280;3924;48.830;9.262;2022-12-29T05:34:45;98060.13;;;9.88;70.83
7760;BME280;3924;48.830;9.262;2022-12-29T05:37:12;98066.16;;;9.85;70.84
7760;BME280;3924;48.830;9.262;2022-12-29T05:39:39;98090.03;;;9.83;70.49
7760;BME280;3924;48.830;9.262;2022-12-29T05:42:05;98078.09;;;9.84;71.22
7760;BME280;3924;48.830;9.262;2022-12-29T05:44:32;98066.16;;;9.85;70.77
7760;BME280;3924;48.830;9.262;2022-12-29T05:46:59;98062.97;;;9.83;70.77
7760;BME280;3924;48.830;9.262;2022-12-29T05:49:25;98056.13;;;9.85;70.94
7760;BME280;3924;48.830;9.262;2022-12-29T05:51:52;98057.16;;;9.90;70.85
7760;BME280;3924;48.830;9.262;2022-12-29T05:54:18;98057.34;;;9.93;70.63
7760;BME280;3924;48.830;9.262;2022-12-29T05:56:45;98060.75;;;9.99;71.14
7760;BME280;3924;48.830;9.262;2022-12-29T05:59:11;98065.84;;;10.00;70.50
7760;BME280;3924;48.830;9.262;2022-12-29T06:01:38;98063.56;;;10.07;70.80
7760;BME280;3924;48.830;9.262;2022-12-29T06:04:04;98054.84;;;10.10;70.26
7760;BME280;3924;48.830;9.262;2022-12-29T06:06:31;98062.84;;;10.15;70.88
7760;BME280;3924;48.830;9.262;2022-12-29T06:08:57;98054.63;;;10.21;70.96
7760;BME280;3924;48.830;9.262;2022-12-29T06:11:23;98044.19;;;10.14;70.77
7760;BME280;3924;48.830;9.262;2022-12-29T06:13:50;98025.44;;;10.04;71.68
7760;BME280;3924;48.830;9.262;2022-12-29T06:16:16;98028.06;;;9.95;70.76
7760;BME280;3924;48.830;9.262;2022-12-29T06:18:43;98024.66;;;9.90;71.21
7760;BME280;3924;48.830;9.262;2022-12-29T06:21:09;98039.31;;;9.89;70.64
7760;BME280;3924;48.830;9.262;2022-12-29T06:23:36;98037.00;;;9.96;71.80
7760;BME280;3924;48.830;9.262;2022-12-29T06:26:02;98043.47;;;10.08;71.73
7760;BME280;3924;48.830;9.262;2022-12-29T06:28:29;98050.31;;;10.06;70.57
7760;BME280;3924;48.830;9.262;2022-12-29T06:30:55;98050.81;;;10.08;71.60
7760;BME280;3924;48.830;9.262;2022-12-29T06:33:21;98058.94;;;10.08;71.02
7760;BME280;3924;48.830;9.262;2022-12-29T06:35:48;98050.94;;;10.03;70.93
7760;BME280;3924;48.830;9.262;2022-12-29T06:38:15;98060.97;;;10.02;71.46
7760;BME280;3924;48.830;9.262;2022-12-29T06:40:42;98055.03;;;10.00;70.45
7760;BME280;3924;48.830;9.262;2022-12-29T06:43:10;98054.84;;;9.97;71.55
7760;BME280;3924;48.830;9.262;2022-12-29T06:45:38;98059.84;;;9.90;71.25
7760;BME280;3924;48.830;9.262;2022-12-29T06:48:06;98055.31;;;9.85;70.65
7760;BME280;3924;48.830;9.262;2022-12-29T06:50:33;98057.31;;;9.79;71.72
7760;BME280;3924;48.830;9.262;2022-12-29T06:53:00;98044.19;;;9.73;71.44
7760;BME280;3924;48.830;9.262;2022-12-29T06:55:27;98048.09;;;9.67;71.45
7760;BME280;3924;48.830;9.262;2022-12-29T06:57:55;98048.19;;;9.62;71.41
7760;BME280;3924;48.830;9.262;2022-12-29T07:00:23;98051.00;;;9.56;71.72
7760;BME280;3924;48.830;9.262;2022-12-29T07:02:50;98052.19;;;9.50;71.22
7760;BME280;3924;48.830;9.262;2022-12-29T07:05:17;98053.59;;;9.48;71.49
7760;BME280;3924;48.830;9.262;2022-12-29T07:07:44;98063.09;;;9.45;71.88
7760;BME280;3924;48.830;9.262;2022-12-29T07:10:10;98061.47;;;9.44;71.72
7760;BME280;3924;48.830;9.262;2022-12-29T07:12:37;98058.47;;;9.46;71.66
7760;BME280;3924;48.830;9.262;2022-12-29T07:15:03;98059.56;;;9.45;71.57
7760;BME280;3924;48.830;9.262;2022-12-29T07:17:30;98065.72;;;9.50;71.78
7760;BME280;3924;48.830;9.262;2022-12-29T07:19:56;98056.19;;;9.53;71.98
7760;BME280;3924;48.830;9.262;2022-12-29T07:22:23;98056.97;;;9.53;71.18
7760;BME280;3924;48.830;9.262;2022-12-29T07:24:49;98051.06;;;9.51;71.43
7760;BME280;3924;48.830;9.262;2022-12-29T07:27:16;98058.09;;;9.52;70.79
7760;BME280;3924;48.830;9.262;2022-12-29T07:29:42;98053.19;;;9.54;70.68
7760;BME280;3924;48.830;9.262;2022-12-29T07:32:09;98055.09;;;9.54;70.80
7760;BME280;3924;48.830;9.262;2022-12-29T07:34:35;98054.81;;;9.55;70.50
7760;BME280;3924;48.830;9.262;2022-12-29T07:37:02;98057.81;;;9.54;70.76
7760;BME280;3924;48.830;9.262;2022-12-29T07:39:28;98062.13;;;9.55;71.28
7760;BME280;3924;48.830;9.262;2022-12-29T07:41:54;98068.91;;;9.52;71.52
7760;BME280;3924;48.830;9.262;2022-12-29T07:44:29;98058.09;;;9.52;71.35
7760;BME280;3924;48.830;9.262;2022-12-29T07:46:56;98069.94;;;9.56;71.58
7760;BME280;3924;48.830;9.262;2022-12-29T07:49:24;98072.03;;;9.59;70.98
7760;BME280;3924;48.830;9.262;2022-12-29T07:51:50;98075.84;;;9.58;71.39
7760;BME280;3924;48.830;9.262;2022-12-29T07:54:17;98072.56;;;9.62;70.39
7760;BME280;3924;48.830;9.262;2022-12-29T07:56:45;98077.16;;;9.61;70.73
7760;BME280;3924;48.830;9.262;2022-12-29T07:59:11;98075.75;;;9.64;70.56
7760;BME280;3924;48.830;9.262;2022-12-29T08:01:41;98077.59;;;9.68;71.23
7760;BME280;3924;48.830;9.262;2022-12-29T08:04:07;98077.19;;;9.75;71.16
7760;BME280;3924;48.830;9.262;2022-12-29T08:06:34;98080.81;;;9.84;70.55
7760;BME280;3924;48.830;9.262;2022-12-29T08:09:01;98086.81;;;9.95;70.49
7760;BME280;3924;48.830;9.262;2022-12-29T08:11:40;98086.72;;;10.00;70.38
7760;BME280;3924;48.830;9.262;2022-12-29T08:14:06;98092.63;;;10.02;69.83
7760;BME280;3924;48.830;9.262;2022-12-29T08:16:33;98099.56;;;10.08;69.68
7760;BME280;3924;48.830;9.262;2022-12-29T08:18:59;98103.19;;;10.17;70.04
7760;BME280;3924;48.830;9.262;2022-12-29T08:21:29;98103.69;;;10.19;69.20
7760;BME280;3924;48.830;9.262;2022-12-29T08:23:56;98102.28;;;10.22;69.54
7760;BME280;3924;48.830;9.262;2022-12-29T08:26:22;98100.13;;;10.24;70.06
7760;BME280;3924;48.830;9.262;2022-12-29T08:28:52;98095.50;;;10.24;70.16
7760;BME280;3924;48.830;9.262;2022-12-29T08:31:18;98097.09;;;10.25;69.20
7760;BME280;3924;48.830;9.262;2022-12-29T08:33:45;98087.38;;;10.24;69.30
7760;BME280;3924;48.830;9.262;2022-12-29T08:36:11;98100.00;;;10.29;69.83
7760;BME280;3924;48.830;9.262;2022-12-29T08:38:38;98096.06;;;10.35;70.20
7760;BME280;3924;48.830;9.262;2022-12-29T08:41:04;98103.09;;;10.36;69.52
7760;BME280;3924;48.830;9.262;2022-12-29T08:43:30;98094.56;;;10.43;70.17
7760;BME280;3924;48.830;9.262;2022-12-29T08:46:00;98089.97;;;10.43;70.08
7760;BME280;3924;48.830;9.262;2022-12-29T08:48:26;98082.44;;;10.40;69.57
7760;BME280;3924;48.830;9.262;2022-12-29T08:50:53;98089.97;;;10.43;70.05
7760;BME280;3924;48.830;9.262;2022-12-29T08:53:19;98091.84;;;10.43;69.65
7760;BME280;3924;48.830;9.262;2022-12-29T08:55:47;98090.56;;;10.40;70.04
7760;BME280;3924;48.830;9.262;2022-12-29T08:58:13;98093.28;;;10.40;69.36
7760;BME280;3924;48.830;9.262;2022-12-29T09:00:42;98102.28;;;10.49;69.26
7760;BME280;3924;48.830;9.262;2022-12-29T09:03:08;98106.00;;;10.53;68.94
7760;BME280;3924;48.830;9.262;2022-12-29T09:05:36;98098.38;;;10.55;69.58
7760;BME280;3924;48.830;9.262;2022-12-29T09:08:02;98108.63;;;10.58;69.70
7760;BME280;3924;48.830;9.262;2022-12-29T09:10:29;98115.13;;;10.71;68.47
7760;BME280;3924;48.830;9.262;2022-12-29T09:12:55;98120.94;;;10.78;68.81
7760;BME280;3924;48.830;9.262;2022-12-29T09:15:22;98122.22;;;10.81;68.05
7760;BME280;3924;48.830;9.262;2022-12-29T09:17:48;98125.44;;;10.83;68.74
7760;BME280;3924;48.830;9.262;2022-12-29T09:20:17;98138.97;;;10.83;68.79
7760;BME280;3924;48.830;9.262;2022-12-29T09:22:45;98130.34;;;10.81;68.26
7760;BME280;3924;48.830;9.262;2022-12-29T09:25:12;98132.59;;;10.79;69.29
7760;BME280;3924;48.830;9.262;2022-12-29T09:27:39;98131.16;;;10.81;68.62
7760;BME280;3924;48.830;9.262;2022-12-29T09:30:08;98126.53;;;10.82;67.96
7760;BME280;3924;48.830;9.262;2022-12-29T09:32:35;98132.59;;;10.79;68.74
7760;BME280;3924;48.830;9.262;2022-12-29T09:35:10;98134.97;;;10.80;68.88
7760;BME280;3924;48.830;9.262;2022-12-29T09:37:36;98136.00;;;10.84;68.37
7760;BME280;3924;48.830;9.262;2022-12-29T09:40:04;98134.75;;;10.90;68.84
7760;BME280;3924;48.830;9.262;2022-12-29T09:43:00;98131.03;;;11.00;68.02
7760;BME280;3924;48.830;9.262;2022-12-29T09:45:33;98136.34;;;11.05;67.79
7760;BME280;3924;48.830;9.262;2022-12-29T09:48:04;98125.88;;;11.12;67.48
7760;BME280;3924;48.830;9.262;2022-12-29T09:50:37;98122.91;;;11.22;67.41
7760;BME280;3924;48.830;9.262;2022-12-29T09:53:25;98127.78;;;11.34;67.03
7760;BME280;3924;48.830;9.262;2022-12-29T09:55:56;98131.19;;;11.40;67.78
7760;BME280;3924;48.830;9.262;2022-12-29T10:03:55;98131.06;;;11.67;67.11
7760;BME280;3924;48.830;9.262;2022-12-29T10:09:31;98122.66;;;11.55;67.08
7760;BME280;3924;48.830;9.262;2022-12-29T10:20:15;98123.41;;;11.47;67.26
7760;BME280;3924;48.830;9.262;2022-12-29T10:23:03;98133.34;;;11.51;67.86
7760;BME280;3924;48.830;9.262;2022-12-29T10:25:37;98133.22;;;11.57;66.94
7760;BME280;3924;48.830;9.262;2022-12-29T10:28:15;98132.91;;;11.58;67.72
7760;BME280;3924;48.830;9.262;2022-12-29T10:30:45;98135.13;;;11.56;66.79
7760;BME280;3924;48.830;9.262;2022-12-29T10:33:18;98139.06;;;11.50;67.83
7760;BME280;3924;48.830;9.262;2022-12-29T10:35:46;98140.19;;;11.49;67.73
7760;BME280;3924;48.830;9.262;2022-12-29T10:38:29;98137.16;;;11.50;67.05
7760;BME280;3924;48.830;9.262;2022-12-29T10:41:28;98129.69;;;11.56;67.13
7760;BME280;3924;48.830;9.262;2022-12-29T10:44:00;98128.09;;;11.55;66.71
7760;BME280;3924;48.830;9.262;2022-12-29T10:46:30;98118.34;;;11.54;66.83
7760;BME280;3924;48.830;9.262;2022-12-29T10:48:59;98119.47;;;11.53;66.96
7760;BME280;3924;48.830;9.262;2022-12-29T10:51:29;98119.47;;;11.53;66.66
7760;BME280;3924;48.830;9.262;2022-12-29T10:54:09;98121.44;;;11.61;67.34
7760;BME280;3924;48.830;9.262;2022-12-29T10:57:15;98130.22;;;11.81;66.40
7760;BME280;3924;48.830;9.262;2022-12-29T10:59:44;98122.03;;;12.03;66.81
7760;BME280;3924;48.830;9.262;2022-12-29T11:07:28;98127.00;;;12.58;65.71
7760;BME280;3924;48.830;9.262;2022-12-29T11:13:04;98115.81;;;12.68;65.48
7760;BME280;3924;48.830;9.262;2022-12-29T11:15:50;98110.25;;;12.65;65.11
7760;BME280;3924;48.830;9.262;2022-12-29T11:20:52;98123.19;;;12.76;65.45
7760;BME280;3924;48.830;9.262;2022-12-29T11:26:13;98124.50;;;12.87;64.67
7760;BME280;3924;48.830;9.262;2022-12-29T11:28:43;98121.94;;;12.82;65.76
7760;BME280;3924;48.830;9.262;2022-12-29T11:31:15;98112.31;;;12.76;64.98
7760;BME280;3924;48.830;9.262;2022-12-29T11:33:42;98115.69;;;12.73;64.98
7760;BME280;3924;48.830;9.262;2022-12-29T11:36:16;98117.28;;;12.74;65.53
7760;BME280;3924;48.830;9.262;2022-12-29T11:38:53;98128.03;;;12.79;64.95
7760;BME280;3924;48.830;9.262;2022-12-29T11:41:26;98120.97;;;12.78;64.92
7760;BME280;3924;48.830;9.262;2022-12-29T11:43:56;98119.38;;;12.77;64.87
7760;BME280;3924;48.830;9.262;2022-12-29T11:46:27;98121.25;;;12.68;64.70
7760;BME280;3924;48.830;9.262;2022-12-29T11:48:56;98114.69;;;12.60;64.93
7760;BME280;3924;48.830;9.262;2022-12-29T11:51:43;98130.34;;;12.55;65.04
7760;BME280;3924;48.830;9.262;2022-12-29T11:56:50;98134.97;;;12.46;65.24
7760;BME280;3924;48.830;9.262;2022-12-29T11:59:25;98147.22;;;12.35;65.42
7760;BME280;3924;48.830;9.262;2022-12-29T12:02:10;98151.50;;;12.18;65.87
7760;BME280;3924;48.830;9.262;2022-12-29T12:04:37;98139.91;;;12.04;67.08
7760;BME280;3924;48.830;9.262;2022-12-29T12:09:37;98151.94;;;11.81;66.95
7760;BME280;3924;48.830;9.262;2022-12-29T12:12:05;98154.28;;;11.73;66.97
7760;BME280;3924;48.830;9.262;2022-12-29T12:14:40;98155.78;;;11.66;68.32
7760;BME280;3924;48.830;9.262;2022-12-29T12:17:12;98159.44;;;11.61;68.35
7760;BME280;3924;48.830;9.262;2022-12-29T12:22:30;98138.84;;;11.60;67.96
7760;BME280;3924;48.830;9.262;2022-12-29T12:25:02;98135.31;;;11.60;68.88
7760;BME280;3924;48.830;9.262;2022-12-29T12:27:39;98139.31;;;11.62;68.82
7760;BME280;3924;48.830;9.262;2022-12-29T12:30:14;98127.03;;;11.65;68.13
7760;BME280;3924;48.830;9.262;2022-12-29T12:35:46;98137.72;;;11.61;68.53
7760;BME280;3924;48.830;9.262;2022-12-29T12:38:55;98129.00;;;11.73;69.41
7760;BME280;3924;48.830;9.262;2022-12-29T12:44:54;98110.44;;;11.89;68.97
7760;BME280;3924;48.830;9.262;2022-12-29T12:47:41;98106.94;;;11.88;68.94
7760;BME280;3924;48.830;9.262;2022-12-29T12:50:22;98108.84;;;11.88;69.33
7760;BME280;3924;48.830;9.262;2022-12-29T13:01:57;98110.13;;;12.30;67.91
7760;BME280;3924;48.830;9.262;2022-12-29T13:04:55;98106.56;;;12.21;68.70
7760;BME280;3924;48.830;9.262;2022-12-29T13:13:10;98090.22;;;12.52;68.41
7760;BME280;3924;48.830;9.262;2022-12-29T13:15:47;98095.66;;;12.52;67.85
7760;BME280;3924;48.830;9.262;2022-12-29T13:18:37;98098.97;;;12.49;68.67
7760;BME280;3924;48.830;9.262;2022-12-29T13:22:25;98087.97;;;12.54;68.28
7760;BME280;3924;48.830;9.262;2022-12-29T13:24:44;98087.34;;;12.57;69.08
7760;BME280;3924;48.830;9.262;2022-12-29T13:27:15;98091.47;;;12.46;68.63
7760;BME280;3924;48.830;9.262;2022-12-29T13:38:09;98089.88;;;11.96;69.27
7760;BME280;3924;48.830;9.262;2022-12-29T13:40:41;98080.25;;;11.90;70.24
7760;BME280;3924;48.830;9.262;2022-12-29T13:43:12;98080.88;;;11.87;70.07
7760;BME280;3924;48.830;9.262;2022-12-29T13:45:39;98080.06;;;11.87;70.64
7760;BME280;3924;48.830;9.262;2022-12-29T13:48:35;98084.69;;;11.86;70.86
7760;BME280;3924;48.830;9.262;2022-12-29T13:51:03;98080.38;;;11.85;70.27
7760;BME280;3924;48.830;9.262;2022-12-29T13:56:36;98084.53;;;11.83;70.84
7760;BME280;3924;48.830;9.262;2022-12-29T14:02:07;98085.75;;;11.76;71.32
7760;BME280;3924;48.830;9.262;2022-12-29T14:04:55;98092.28;;;11.75;71.22
7760;BME280;3924;48.830;9.262;2022-12-29T14:07:23;98093.41;;;11.74;71.27
7760;BME280;3924;48.830;9.262;2022-12-29T14:09:54;98089.56;;;11.75;71.02
7760;BME280;3924;48.830;9.262;2022-12-29T14:12:41;98096.41;;;11.73;71.58
7760;BME280;3924;48.830;9.262;2022-12-29T14:17:40;98098.47;;;11.67;71.45
7760;BME280;3924;48.830;9.262;2022-12-29T14:20:20;98090.34;;;11.67;71.72
7760;BME280;3924;48.830;9.262;2022-12-29T14:28:46;98101.47;;;11.66;71.92
7760;BME280;3924;48.830;9.262;2022-12-29T14:33:41;98096.25;;;11.69;71.28
7760;BME280;3924;48.830;9.262;2022-12-29T14:37:02;98097.53;;;11.72;71.10
7760;BME280;3924;48.830;9.262;2022-12-29T14:39:40;98103.75;;;11.72;71.37
7760;BME280;3924;48.830;9.262;2022-12-29T14:44:48;98100.19;;;11.63;71.76
7760;BME280;3924;48.830;9.262;2022-12-29T14:47:19;98106.38;;;11.55;72.57
7760;BME280;3924;48.830;9.262;2022-12-29T14:49:46;98105.38;;;11.51;72.48
7760;BME280;3924;48.830;9.262;2022-12-29T14:52:18;98101.19;;;11.45;71.89
7760;BME280;3924;48.830;9.262;2022-12-29T14:54:56;98105.44;;;11.37;72.77
7760;BME280;3924;48.830;9.262;2022-12-29T14:57:37;98096.03;;;11.35;73.10
7760;BME280;3924;48.830;9.262;2022-12-29T15:02:40;98086.56;;;11.32;73.40
7760;BME280;3924;48.830;9.262;2022-12-29T15:05:24;98098.25;;;11.33;73.37
7760;BME280;3924;48.830;9.262;2022-12-29T15:07:53;98093.63;;;11.33;73.34
7760;BME280;3924;48.830;9.262;2022-12-29T15:10:22;98096.03;;;11.35;72.76
7760;BME280;3924;48.830;9.262;2022-12-29T15:12:53;98102.75;;;11.37;72.88
7760;BME280;3924;48.830;9.262;2022-12-29T15:15:25;98093.81;;;11.37;73.07
7760;BME280;3924;48.830;9.262;2022-12-29T15:17:52;98083.06;;;11.32;73.31
7760;BME280;3924;48.830;9.262;2022-12-29T15:20:23;98084.59;;;11.24;73.66
7760;BME280;3924;48.830;9.262;2022-12-29T15:22:55;98087.47;;;11.19;73.64
7760;BME280;3924;48.830;9.262;2022-12-29T15:25:24;98085.03;;;11.17;73.37
7760;BME280;3924;48.830;9.262;2022-12-29T15:28:03;98088.38;;;11.14;73.01
7760;BME280;3924;48.830;9.262;2022-12-29T15:30:32;98091.09;;;11.14;72.99
7760;BME280;3924;48.830;9.262;2022-12-29T15:33:00;98095.88;;;11.17;73.80
7760;BME280;3924;48.830;9.262;2022-12-29T15:35:37;98103.13;;;11.22;72.89
7760;BME280;3924;48.830;9.262;2022-12-29T15:38:19;98103.91;;;11.22;73.18
7760;BME280;3924;48.830;9.262;2022-12-29T15:41:01;98108.53;;;11.22;74.21
7760;BME280;3924;48.830;9.262;2022-12-29T15:43:53;98117.78;;;11.21;73.29
7760;BME280;3924;48.830;9.262;2022-12-29T15:46:24;98138.28;;;11.27;73.90
7760;BME280;3924;48.830;9.262;2022-12-29T15:48:55;98181.75;;;11.36;72.89
7760;BME280;3924;48.830;9.262;2022-12-29T15:51:33;98174.84;;;11.30;73.97
7760;BME280;3924;48.830;9.262;2022-12-29T15:54:04;98174.34;;;10.91;73.51
7760;BME280;3924;48.830;9.262;2022-12-29T15:56:37;98198.06;;;10.58;74.97
7760;BME280;3924;48.830;9.262;2022-12-29T15:59:29;98194.81;;;10.29;74.91